createdAt,value
2022-09-21T00:00:35.440Z,57.81
2022-09-21T00:01:35.525Z,41.73
2022-09-21T00:02:35.490Z,53.66
2022-09-21T00:03:35.419Z,39.24
2022-09-21T00:04:35.412Z,54.02
2022-09-21T00:05:35.406Z,57.97
2022-09-21T00:06:35.398Z,54.47
2022-09-21T00:07:35.416Z,43.89
2022-09-21T00:08:35.378Z,57.46
2022-09-21T00:09:35.367Z,59.64
2022-09-21T00:10:35.356Z,38.95
2022-09-21T00:11:35.349Z,40.69
2022-09-21T00:12:35.372Z,60.02
2022-09-21T00:13:35.343Z,43.81
2022-09-21T00:14:35.332Z,66.19
2022-09-21T00:15:35.321Z,55.86
2022-09-21T00:16:35.385Z,63.02
2022-09-21T00:17:35.337Z,56.84
2022-09-21T00:18:35.298Z,58.69
2022-09-21T00:19:35.278Z,40.58
2022-09-21T00:20:35.279Z,51.01
2022-09-21T00:21:35.274Z,57.11
2022-09-21T00:22:35.287Z,60.60
2022-09-21T00:23:35.255Z,55.43
2022-09-21T00:24:36.244Z,47.94
2022-09-21T00:25:35.233Z,55.36
2022-09-21T00:26:35.231Z,57.92
2022-09-21T00:27:35.251Z,47.30
2022-09-21T00:28:35.207Z,58.18
2022-09-21T00:29:35.199Z,46.67
2022-09-21T00:30:35.197Z,54.08
2022-09-21T00:31:35.239Z,61.91
2022-09-21T00:32:35.203Z,47.18
2022-09-21T00:33:35.170Z,52.57
2022-09-21T00:34:35.159Z,47.81
2022-09-21T00:35:35.162Z,55.43
2022-09-21T00:36:35.146Z,45.94
2022-09-21T00:37:35.162Z,38.72
2022-09-21T00:38:35.127Z,46.99
2022-09-21T00:39:35.120Z,43.84
2022-09-21T00:40:35.157Z,40.39
2022-09-21T00:41:35.108Z,49.64
2022-09-21T00:42:35.127Z,56.28
2022-09-21T00:43:35.082Z,59.92
2022-09-21T00:44:35.080Z,54.62
2022-09-21T00:45:35.108Z,66.61
2022-09-21T00:46:35.066Z,49.27
2022-09-21T00:47:35.083Z,39.35
2022-09-21T00:48:35.051Z,39.13
2022-09-21T00:49:35.032Z,43.16
2022-09-21T00:50:36.027Z,58.99
2022-09-21T00:51:35.024Z,52.02
2022-09-21T00:52:35.055Z,57.11
2022-09-21T00:54:07.517Z,54.18
2022-09-21T00:54:35.014Z,56.76
2022-09-21T00:55:35.016Z,54.89
2022-09-21T00:56:34.989Z,49.63
2022-09-21T00:57:35.014Z,41.12
2022-09-21T00:58:34.973Z,39.58
2022-09-21T00:59:34.961Z,39.45
2022-09-21T01:00:34.969Z,48.34
2022-09-21T01:01:34.940Z,51.56
2022-09-21T01:02:35.962Z,57.03
2022-09-21T01:03:34.925Z,39.66
2022-09-21T01:04:34.919Z,48.83
2022-09-21T01:05:34.909Z,39.02
2022-09-21T01:06:34.893Z,39.06
2022-09-21T01:07:34.918Z,38.86
2022-09-21T01:08:34.886Z,50.20
2022-09-21T01:09:34.873Z,49.60
2022-09-21T01:10:34.866Z,62.15
2022-09-21T01:11:34.855Z,56.70
2022-09-21T01:12:34.880Z,55.08
2022-09-21T01:13:34.850Z,60.31
2022-09-21T01:14:34.843Z,57.93
2022-09-21T01:15:34.828Z,55.06
2022-09-21T01:16:34.845Z,52.97
2022-09-21T01:17:34.841Z,54.80
2022-09-21T01:18:34.807Z,46.99
2022-09-21T01:19:34.791Z,66.34
2022-09-21T01:20:34.786Z,61.95
2022-09-21T01:21:34.777Z,54.19
2022-09-21T01:22:34.832Z,63.30
2022-09-21T01:23:34.780Z,40.17
2022-09-21T01:24:34.748Z,46.73
2022-09-21T01:25:34.759Z,53.85
2022-09-21T01:26:34.740Z,59.43
2022-09-21T01:27:34.727Z,58.66
2022-09-21T01:28:34.753Z,48.35
2022-09-21T01:29:34.713Z,54.59
2022-09-21T01:30:34.699Z,53.79
2022-09-21T01:31:34.711Z,53.61
2022-09-21T01:32:34.690Z,50.88
2022-09-21T01:33:34.704Z,56.71
2022-09-21T01:34:34.673Z,67.72
2022-09-21T01:35:34.682Z,60.70
2022-09-21T01:36:34.679Z,57.49
2022-09-21T01:37:34.677Z,53.24
2022-09-21T01:38:34.637Z,52.00
2022-09-21T01:39:34.628Z,52.64
2022-09-21T01:40:35.791Z,57.92
2022-09-21T01:41:35.632Z,41.17
2022-09-21T01:42:34.655Z,61.82
2022-09-21T01:43:34.599Z,60.13
2022-09-21T01:44:34.587Z,55.96
2022-09-21T01:45:34.600Z,40.79
2022-09-21T01:46:34.587Z,53.20
2022-09-21T01:47:34.566Z,55.90
2022-09-21T01:48:34.589Z,61.55
2022-09-21T01:49:34.556Z,53.82
2022-09-21T01:50:35.538Z,45.09
2022-09-21T01:51:34.541Z,61.07
2022-09-21T01:52:34.532Z,66.34
2022-09-21T01:53:34.575Z,60.05
2022-09-21T01:54:34.700Z,45.07
2022-09-21T01:55:34.500Z,42.41
2022-09-21T01:56:34.490Z,60.59
2022-09-21T01:57:34.479Z,61.10
2022-09-21T01:58:34.510Z,60.46
2022-09-21T01:59:34.470Z,54.86
2022-09-21T02:00:34.506Z,63.14
2022-09-21T02:01:34.454Z,58.18
2022-09-21T02:02:34.450Z,40.80
2022-09-21T02:03:34.489Z,49.04
2022-09-21T02:04:34.429Z,55.89
2022-09-21T02:05:34.423Z,64.67
2022-09-21T02:06:34.406Z,56.57
2022-09-21T02:07:34.402Z,54.43
2022-09-21T02:08:34.422Z,67.12
2022-09-21T02:09:34.382Z,49.40
2022-09-21T02:10:34.372Z,58.22
2022-09-21T02:11:34.374Z,62.60
2022-09-21T02:12:34.359Z,58.05
2022-09-21T02:13:34.379Z,52.45
2022-09-21T02:14:34.339Z,55.11
2022-09-21T02:15:34.351Z,65.38
2022-09-21T02:16:34.338Z,56.77
2022-09-21T02:17:34.318Z,40.18
2022-09-21T02:18:34.347Z,46.65
2022-09-21T02:19:34.300Z,46.65
2022-09-21T02:20:34.291Z,46.34
2022-09-21T02:21:34.285Z,49.43
2022-09-21T02:22:34.269Z,58.56
2022-09-21T02:23:34.300Z,48.23
2022-09-21T02:24:34.263Z,59.52
2022-09-21T02:25:34.273Z,56.04
2022-09-21T02:26:34.265Z,58.57
2022-09-21T02:27:34.234Z,49.69
2022-09-21T02:28:34.250Z,66.20
2022-09-21T02:29:34.212Z,59.21
2022-09-21T02:30:34.218Z,53.55
2022-09-21T02:31:34.288Z,49.63
2022-09-21T02:32:34.194Z,54.99
2022-09-21T02:33:34.233Z,41.79
2022-09-21T02:34:34.175Z,60.31
2022-09-21T02:35:34.169Z,47.69
2022-09-21T02:36:34.177Z,50.54
2022-09-21T02:37:34.156Z,64.26
2022-09-21T02:38:34.170Z,65.93
2022-09-21T02:39:34.142Z,60.65
2022-09-21T02:40:34.175Z,63.64
2022-09-21T02:41:34.127Z,53.30
2022-09-21T02:42:34.114Z,50.78
2022-09-21T02:43:34.169Z,54.89
2022-09-21T02:44:34.097Z,41.77
2022-09-21T02:45:34.090Z,68.91
2022-09-21T02:46:34.141Z,63.35
2022-09-21T02:47:34.080Z,62.95
2022-09-21T02:48:34.103Z,44.73
2022-09-21T02:49:34.068Z,64.62
2022-09-21T02:50:34.058Z,56.18
2022-09-21T02:51:34.044Z,52.78
2022-09-21T02:52:34.027Z,66.26
2022-09-21T02:53:34.041Z,60.21
2022-09-21T02:54:34.016Z,68.35
2022-09-21T02:55:33.989Z,49.74
2022-09-21T02:56:35.016Z,61.64
2022-09-21T02:57:33.980Z,66.32
2022-09-21T02:58:33.980Z,64.07
2022-09-21T02:59:34.005Z,65.19
2022-09-21T03:00:33.999Z,61.36
2022-09-21T03:01:34.020Z,60.41
2022-09-21T03:02:33.954Z,58.13
2022-09-21T03:03:33.944Z,63.86
2022-09-21T03:04:33.968Z,60.10
2022-09-21T03:05:33.921Z,64.69
2022-09-21T03:06:33.923Z,60.04
2022-09-21T03:07:33.908Z,58.44
2022-09-21T03:08:33.896Z,59.09
2022-09-21T03:09:33.929Z,67.83
2022-09-21T03:10:33.882Z,65.19
2022-09-21T03:11:33.892Z,64.88
2022-09-21T03:12:33.863Z,60.30
2022-09-21T03:13:33.856Z,66.05
2022-09-21T03:14:33.880Z,62.60
2022-09-21T03:15:33.846Z,69.76
2022-09-21T03:16:33.857Z,67.79
2022-09-21T03:17:33.852Z,65.26
2022-09-21T03:18:33.823Z,61.68
2022-09-21T03:19:33.852Z,58.42
2022-09-21T03:20:34.805Z,70.69
2022-09-21T03:21:33.790Z,55.80
2022-09-21T03:22:33.790Z,67.31
2022-09-21T03:23:33.769Z,64.07
2022-09-21T03:24:33.798Z,64.57
2022-09-21T03:25:33.758Z,64.79
2022-09-21T03:26:33.750Z,62.80
2022-09-21T03:27:33.740Z,70.31
2022-09-21T03:28:33.748Z,62.43
2022-09-21T03:29:33.757Z,69.99
2022-09-21T03:30:33.717Z,69.08
2022-09-21T03:31:33.729Z,62.89
2022-09-21T03:32:33.699Z,60.75
2022-09-21T03:33:33.692Z,69.45
2022-09-21T03:34:33.712Z,66.22
2022-09-21T03:35:33.671Z,63.12
2022-09-21T03:36:33.668Z,69.85
2022-09-21T03:37:38.020Z,64.29
2022-09-21T03:38:34.652Z,62.63
2022-09-21T03:39:33.679Z,65.12
2022-09-21T03:40:33.696Z,70.94
2022-09-21T03:41:33.654Z,67.22
2022-09-21T03:42:33.607Z,53.48
2022-09-21T03:43:34.608Z,64.68
2022-09-21T03:44:33.635Z,71.89
2022-09-21T03:45:33.591Z,65.93
2022-09-21T03:46:33.638Z,64.61
2022-09-21T03:47:33.561Z,71.41
2022-09-21T03:48:34.576Z,67.15
2022-09-21T03:49:33.620Z,68.72
2022-09-21T03:50:33.550Z,70.80
2022-09-21T03:51:33.541Z,68.80
2022-09-21T03:52:33.551Z,61.65
2022-09-21T03:53:33.531Z,63.44
2022-09-21T03:54:33.551Z,70.71
2022-09-21T03:55:33.505Z,56.80
2022-09-21T03:56:33.499Z,66.82
2022-09-21T03:57:33.490Z,71.62
2022-09-21T03:58:33.484Z,71.99
2022-09-21T03:59:33.526Z,68.26
2022-09-21T04:00:33.468Z,65.49
2022-09-21T04:01:33.610Z,69.31
2022-09-21T04:02:33.690Z,69.40
2022-09-21T04:03:33.446Z,61.80
2022-09-21T04:04:33.489Z,68.96
2022-09-21T04:05:33.421Z,68.78
2022-09-21T04:06:33.421Z,66.83
2022-09-21T04:07:33.413Z,64.73
2022-09-21T04:08:33.418Z,64.68
2022-09-21T04:09:33.405Z,72.91
2022-09-21T04:10:33.507Z,64.88
2022-09-21T04:11:33.418Z,66.37
2022-09-21T04:12:33.368Z,69.74
2022-09-21T04:13:33.412Z,67.81
2022-09-21T04:14:33.394Z,64.58
2022-09-21T04:15:33.393Z,69.26
2022-09-21T04:16:33.346Z,70.16
2022-09-21T04:17:33.333Z,71.01
2022-09-21T04:18:33.353Z,68.11
2022-09-21T04:19:33.328Z,63.95
2022-09-21T04:20:33.334Z,64.13
2022-09-21T04:21:33.300Z,72.01
2022-09-21T04:22:33.287Z,68.81
2022-09-21T04:23:33.323Z,68.51
2022-09-21T04:24:33.275Z,68.93
2022-09-21T04:25:33.285Z,69.44
2022-09-21T04:26:33.265Z,66.42
2022-09-21T04:27:33.249Z,64.43
2022-09-21T04:28:33.378Z,70.83
2022-09-21T04:29:34.226Z,72.14
2022-09-21T04:30:37.501Z,69.51
2022-09-21T04:31:34.304Z,64.53
2022-09-21T04:32:33.206Z,70.47
2022-09-21T04:33:33.196Z,69.93
2022-09-21T04:34:33.193Z,73.65
2022-09-21T04:35:33.207Z,64.79
2022-09-21T04:36:36.419Z,71.47
2022-09-21T04:37:34.176Z,71.99
2022-09-21T04:38:33.159Z,68.89
2022-09-21T04:39:33.180Z,71.98
2022-09-21T04:40:33.242Z,70.66
2022-09-21T04:41:33.129Z,72.07
2022-09-21T04:42:33.135Z,68.42
2022-09-21T04:43:33.123Z,66.55
2022-09-21T04:44:33.123Z,69.27
2022-09-21T04:45:33.140Z,71.26
2022-09-21T04:46:33.146Z,72.39
2022-09-21T04:47:33.077Z,72.20
2022-09-21T04:48:33.065Z,68.59
2022-09-21T04:49:33.059Z,68.21
2022-09-21T04:50:33.084Z,67.36
2022-09-21T04:51:33.044Z,70.86
2022-09-21T04:52:33.065Z,72.69
2022-09-21T04:53:33.034Z,69.84
2022-09-21T04:54:33.037Z,69.96
2022-09-21T04:55:33.056Z,71.65
2022-09-21T04:56:33.014Z,70.26
2022-09-21T04:57:32.998Z,69.76
2022-09-21T04:58:32.990Z,67.41
2022-09-21T04:59:32.972Z,74.20
2022-09-21T05:00:33.002Z,69.72
2022-09-21T05:01:32.988Z,72.81
2022-09-21T05:02:32.953Z,72.55
2022-09-21T05:03:33.000Z,66.42
2022-09-21T05:04:32.960Z,70.44
2022-09-21T05:05:32.978Z,70.92
2022-09-21T05:06:32.926Z,71.49
2022-09-21T05:07:32.927Z,72.93
2022-09-21T05:08:32.904Z,72.14
2022-09-21T05:09:32.902Z,66.33
2022-09-21T05:10:32.929Z,71.77
2022-09-21T05:11:32.877Z,72.30
2022-09-21T05:12:32.890Z,70.43
2022-09-21T05:13:32.870Z,64.26
2022-09-21T05:14:32.858Z,69.36
2022-09-21T05:15:32.922Z,69.59
2022-09-21T05:16:32.841Z,71.88
2022-09-21T05:17:32.854Z,73.01
2022-09-21T05:18:32.826Z,67.18
2022-09-21T05:19:32.819Z,72.72
2022-09-21T05:20:32.838Z,70.41
2022-09-21T05:21:32.799Z,72.31
2022-09-21T05:22:32.812Z,72.01
2022-09-21T05:23:32.776Z,71.03
2022-09-21T05:24:32.780Z,68.23
2022-09-21T05:25:32.816Z,68.20
2022-09-21T05:26:32.763Z,70.59
2022-09-21T05:27:32.753Z,72.15
2022-09-21T05:28:35.514Z,68.98
2022-09-21T05:29:33.738Z,70.83
2022-09-21T05:30:32.820Z,69.57
2022-09-21T05:31:32.755Z,70.23
2022-09-21T05:32:32.741Z,71.00
2022-09-21T05:33:32.703Z,71.14
2022-09-21T05:34:36.414Z,65.65
2022-09-21T05:35:33.746Z,73.27
2022-09-21T05:36:32.684Z,70.55
2022-09-21T05:37:32.673Z,74.95
2022-09-21T05:38:32.668Z,69.05
2022-09-21T05:39:32.667Z,71.13
2022-09-21T05:40:32.741Z,71.80
2022-09-21T05:41:32.673Z,71.73
2022-09-21T05:42:32.635Z,67.38
2022-09-21T05:43:32.627Z,68.19
2022-09-21T05:44:32.634Z,75.56
2022-09-21T05:45:32.621Z,72.61
2022-09-21T05:46:32.620Z,69.92
2022-09-21T05:47:32.603Z,72.09
2022-09-21T05:48:32.586Z,71.51
2022-09-21T05:49:32.576Z,69.62
2022-09-21T05:50:32.568Z,72.63
2022-09-21T05:51:32.589Z,72.56
2022-09-21T05:52:32.542Z,70.77
2022-09-21T05:53:32.545Z,67.52
2022-09-21T05:54:32.551Z,66.18
2022-09-21T05:55:32.585Z,71.78
2022-09-21T05:56:32.549Z,72.37
2022-09-21T05:57:32.524Z,72.55
2022-09-21T05:58:32.505Z,64.31
2022-09-21T05:59:32.532Z,66.70
2022-09-21T06:00:32.539Z,73.14
2022-09-21T06:01:32.552Z,73.18
2022-09-21T06:02:32.563Z,67.27
2022-09-21T06:03:32.464Z,67.77
2022-09-21T06:04:32.485Z,68.59
2022-09-21T06:05:32.466Z,71.26
2022-09-21T06:06:32.475Z,75.89
2022-09-21T06:07:32.472Z,65.87
2022-09-21T06:08:32.421Z,68.20
2022-09-21T06:09:32.460Z,73.10
2022-09-21T06:10:32.475Z,74.19
2022-09-21T06:11:32.540Z,70.75
2022-09-21T06:12:32.439Z,70.28
2022-09-21T06:13:32.391Z,69.53
2022-09-21T06:14:32.458Z,72.01
2022-09-21T06:15:32.447Z,72.63
2022-09-21T06:16:32.422Z,65.26
2022-09-21T06:17:32.452Z,65.66
2022-09-21T06:18:32.362Z,73.38
2022-09-21T06:19:32.381Z,68.07
2022-09-21T06:20:32.320Z,72.36
2022-09-21T06:21:32.340Z,70.11
2022-09-21T06:22:32.305Z,70.81
2022-09-21T06:23:32.323Z,71.82
2022-09-21T06:24:32.292Z,71.12
2022-09-21T06:25:32.284Z,72.49
2022-09-21T06:26:32.296Z,66.24
2022-09-21T06:27:32.262Z,71.25
2022-09-21T06:28:32.289Z,67.33
2022-09-21T06:29:32.250Z,73.82
2022-09-21T06:30:32.296Z,70.24
2022-09-21T06:31:33.264Z,69.74
2022-09-21T06:32:32.224Z,68.36
2022-09-21T06:33:32.277Z,72.55
2022-09-21T06:34:32.213Z,71.94
2022-09-21T06:35:32.235Z,70.54
2022-09-21T06:36:32.219Z,68.48
2022-09-21T06:37:32.185Z,71.89
2022-09-21T06:38:32.222Z,66.31
2022-09-21T06:39:32.171Z,67.04
2022-09-21T06:40:32.198Z,68.01
2022-09-21T06:41:32.186Z,71.10
2022-09-21T06:42:32.157Z,71.94
2022-09-21T06:43:32.172Z,71.99
2022-09-21T06:44:32.136Z,64.99
2022-09-21T06:45:32.128Z,66.66
2022-09-21T06:46:32.137Z,70.39
2022-09-21T06:47:32.109Z,73.26
2022-09-21T06:48:32.090Z,72.15
2022-09-21T06:49:32.095Z,68.01
2022-09-21T06:50:32.095Z,69.23
2022-09-21T06:51:32.115Z,71.71
2022-09-21T06:52:32.064Z,68.85
2022-09-21T06:54:06.095Z,66.62
2022-09-21T06:54:32.058Z,67.52
2022-09-21T06:55:32.091Z,65.80
2022-09-21T06:56:32.060Z,72.00
2022-09-21T06:57:32.024Z,67.39
2022-09-21T06:58:32.018Z,66.58
2022-09-21T06:59:32.012Z,68.91
2022-09-21T07:00:31.999Z,72.80
2022-09-21T07:01:32.089Z,74.33
2022-09-21T07:02:31.979Z,69.33
2022-09-21T07:03:31.981Z,68.21
2022-09-21T07:04:31.970Z,72.04
2022-09-21T07:05:31.953Z,73.76
2022-09-21T07:06:31.970Z,71.17
2022-09-21T07:07:31.940Z,70.54
2022-09-21T07:10:33.959Z,71.81
2022-09-21T07:11:31.927Z,60.83
2022-09-21T07:12:31.900Z,70.02
2022-09-21T07:13:31.884Z,66.40
2022-09-21T07:14:31.890Z,70.60
2022-09-21T07:15:31.873Z,72.06
2022-09-21T07:16:31.927Z,63.82
2022-09-21T07:17:31.852Z,69.09
2022-09-21T07:18:42.530Z,67.71
2022-09-21T07:19:33.838Z,69.35
2022-09-21T07:20:31.830Z,71.71
2022-09-21T07:21:31.850Z,70.30
2022-09-21T07:22:31.813Z,68.97
2022-09-21T07:23:31.812Z,59.15
2022-09-21T07:24:31.795Z,64.94
2022-09-21T07:25:31.788Z,65.06
2022-09-21T07:26:31.812Z,70.33
2022-09-21T07:27:31.773Z,68.02
2022-09-21T07:28:31.775Z,71.84
2022-09-21T07:29:31.762Z,69.28
2022-09-21T07:30:31.750Z,69.93
2022-09-21T07:31:31.801Z,72.43
2022-09-21T07:32:31.731Z,66.02
2022-09-21T07:33:35.883Z,69.59
2022-09-21T07:34:32.715Z,69.42
2022-09-21T07:35:31.711Z,68.65
2022-09-21T07:36:31.754Z,63.87
2022-09-21T07:37:31.684Z,69.49
2022-09-21T07:38:31.686Z,71.51
2022-09-21T07:39:31.682Z,73.01
2022-09-21T07:40:31.724Z,69.08
2022-09-21T07:41:31.765Z,68.02
2022-09-21T07:42:31.650Z,66.91
2022-09-21T07:43:31.640Z,71.24
2022-09-21T07:44:31.640Z,72.75
2022-09-21T07:45:31.664Z,70.73
2022-09-21T07:46:31.643Z,67.78
2022-09-21T07:47:31.609Z,70.30
2022-09-21T07:48:31.601Z,70.48
2022-09-21T07:49:31.585Z,66.99
2022-09-21T07:50:31.579Z,67.43
2022-09-21T07:51:31.567Z,64.00
2022-09-21T07:52:31.587Z,68.26
2022-09-21T07:53:31.555Z,71.04
2022-09-21T07:54:31.549Z,72.27
2022-09-21T07:55:31.538Z,72.22
2022-09-21T07:56:31.523Z,68.39
2022-09-21T07:57:31.549Z,70.68
2022-09-21T07:58:31.509Z,66.49
2022-09-21T07:59:31.547Z,67.79
2022-09-21T08:00:31.492Z,63.82
2022-09-21T08:01:31.488Z,70.75
2022-09-21T08:02:31.578Z,69.39
2022-09-21T08:03:31.468Z,63.15
2022-09-21T08:04:31.466Z,69.67
2022-09-21T08:05:31.454Z,72.25
2022-09-21T08:06:31.445Z,65.60
2022-09-21T08:07:31.463Z,68.86
2022-09-21T08:08:31.428Z,69.74
2022-09-21T08:09:31.426Z,68.96
2022-09-21T08:10:31.414Z,69.91
2022-09-21T08:11:31.404Z,67.65
2022-09-21T08:12:31.421Z,67.65
2022-09-21T08:13:31.386Z,71.67
2022-09-21T08:14:31.958Z,63.97
2022-09-21T08:15:48.724Z,62.71
2022-09-21T08:16:33.403Z,65.08
2022-09-21T08:17:31.382Z,70.98
2022-09-21T08:18:31.379Z,69.22
2022-09-21T08:19:31.334Z,69.95
2022-09-21T08:20:31.332Z,65.52
2022-09-21T08:21:31.325Z,65.91
2022-09-21T08:22:31.336Z,70.82
2022-09-21T08:23:31.318Z,63.28
2022-09-21T08:24:31.301Z,62.54
2022-09-21T08:25:31.287Z,68.73
2022-09-21T08:26:31.280Z,68.88
2022-09-21T08:27:31.299Z,71.23
2022-09-21T08:28:31.286Z,68.15
2022-09-21T08:29:31.252Z,63.15
2022-09-21T08:30:31.260Z,73.57
2022-09-21T08:31:31.342Z,69.31
2022-09-21T08:32:50.077Z,69.64
2022-09-21T08:33:33.236Z,70.47
2022-09-21T08:34:31.218Z,72.82
2022-09-21T08:35:31.217Z,71.00
2022-09-21T08:36:31.202Z,69.19
2022-09-21T08:37:31.222Z,67.52
2022-09-21T08:38:31.184Z,69.95
2022-09-21T08:39:31.177Z,70.05
2022-09-21T08:40:31.210Z,72.29
2022-09-21T08:41:31.158Z,67.10
2022-09-21T08:42:31.183Z,68.78
2022-09-21T08:43:31.137Z,68.34
2022-09-21T08:44:31.131Z,71.76
2022-09-21T08:45:31.124Z,70.85
2022-09-21T08:46:31.180Z,61.28
2022-09-21T08:47:31.130Z,68.70
2022-09-21T08:48:36.428Z,71.40
2022-09-21T08:49:33.086Z,65.87
2022-09-21T08:50:31.088Z,65.30
2022-09-21T08:51:31.072Z,60.34
2022-09-21T08:52:31.095Z,69.84
2022-09-21T08:53:31.048Z,66.59
2022-09-21T08:54:31.052Z,68.80
2022-09-21T08:55:31.052Z,70.88
2022-09-21T08:56:53.310Z,70.65
2022-09-21T08:57:33.059Z,68.54
2022-09-21T08:58:31.014Z,72.13
2022-09-21T08:59:31.012Z,69.36
2022-09-21T09:00:31.036Z,67.14
2022-09-21T09:01:31.054Z,69.93
2022-09-21T09:02:31.015Z,72.23
2022-09-21T09:03:30.980Z,67.20
2022-09-21T09:04:30.990Z,64.07
2022-09-21T09:05:30.970Z,65.55
2022-09-21T09:06:30.955Z,69.50
2022-09-21T09:07:30.977Z,71.16
2022-09-21T09:08:30.935Z,66.20
2022-09-21T09:09:30.927Z,73.36
2022-09-21T09:10:30.915Z,70.59
2022-09-21T09:11:30.911Z,70.98
2022-09-21T09:12:30.931Z,64.57
2022-09-21T09:13:30.892Z,68.83
2022-09-21T09:14:30.899Z,68.25
2022-09-21T09:15:30.877Z,72.23
2022-09-21T09:16:30.927Z,63.90
2022-09-21T09:17:30.886Z,67.54
2022-09-21T09:18:30.850Z,70.83
2022-09-21T09:19:30.852Z,69.34
2022-09-21T09:20:30.840Z,64.29
2022-09-21T09:21:32.484Z,70.16
2022-09-21T09:22:31.859Z,69.70
2022-09-21T09:23:30.820Z,64.85
2022-09-21T09:24:30.807Z,71.48
2022-09-21T09:25:30.801Z,67.83
2022-09-21T09:26:30.795Z,66.18
2022-09-21T09:27:30.820Z,67.19
2022-09-21T09:28:30.770Z,68.70
2022-09-21T09:29:30.781Z,66.13
2022-09-21T09:30:30.765Z,68.81
2022-09-21T09:31:30.827Z,70.94
2022-09-21T09:32:30.772Z,72.19
2022-09-21T09:33:30.750Z,68.69
2022-09-21T09:34:30.727Z,72.84
2022-09-21T09:35:30.712Z,69.30
2022-09-21T09:36:56.627Z,69.48
2022-09-21T09:37:32.739Z,71.05
2022-09-21T09:38:30.713Z,71.99
2022-09-21T09:39:30.710Z,65.97
2022-09-21T09:40:30.723Z,68.61
2022-09-21T09:41:31.664Z,60.49
2022-09-21T09:42:30.666Z,61.32
2022-09-21T09:43:30.684Z,63.82
2022-09-21T09:44:30.649Z,68.86
2022-09-21T09:45:30.639Z,70.78
2022-09-21T09:46:30.681Z,65.67
2022-09-21T09:47:30.634Z,64.14
2022-09-21T09:48:30.641Z,70.07
2022-09-21T09:49:30.609Z,67.24
2022-09-21T09:50:30.593Z,72.22
2022-09-21T09:51:30.587Z,67.21
2022-09-21T09:52:30.578Z,66.28
2022-09-21T09:53:30.604Z,69.19
2022-09-21T09:54:30.592Z,69.42
2022-09-21T09:55:30.569Z,67.56
2022-09-21T09:56:30.554Z,68.48
2022-09-21T09:57:30.547Z,67.99
2022-09-21T09:58:30.559Z,70.02
2022-09-21T09:59:30.556Z,70.51
2022-09-21T10:00:30.507Z,67.80
2022-09-21T10:01:31.564Z,65.64
2022-09-21T10:02:30.512Z,69.71
2022-09-21T10:03:30.532Z,65.09
2022-09-21T10:04:30.530Z,66.82
2022-09-21T10:05:30.480Z,72.99
2022-09-21T10:06:30.472Z,70.58
2022-09-21T10:07:30.461Z,69.10
2022-09-21T10:08:30.511Z,66.72
2022-09-21T10:09:30.462Z,65.15
2022-09-21T10:10:30.443Z,66.14
2022-09-21T10:11:30.438Z,70.15
2022-09-21T10:12:30.420Z,69.09
2022-09-21T10:13:30.443Z,64.86
2022-09-21T10:14:30.399Z,66.68
2022-09-21T10:15:30.406Z,69.47
2022-09-21T10:16:30.433Z,71.56
2022-09-21T10:17:30.384Z,64.67
2022-09-21T10:18:30.399Z,71.30
2022-09-21T10:19:30.357Z,68.61
2022-09-21T10:20:30.352Z,71.14
2022-09-21T10:21:30.349Z,70.46
2022-09-21T10:22:30.334Z,68.74
2022-09-21T10:23:30.363Z,62.68
2022-09-21T10:24:30.325Z,68.37
2022-09-21T10:25:30.316Z,70.48
2022-09-21T10:26:30.312Z,65.66
2022-09-21T10:27:30.332Z,65.30
2022-09-21T10:28:30.326Z,71.69
2022-09-21T10:29:30.279Z,71.27
2022-09-21T10:30:30.278Z,65.19
2022-09-21T10:31:30.399Z,70.04
2022-09-21T10:32:30.257Z,60.56
2022-09-21T10:33:30.282Z,71.24
2022-09-21T10:34:30.243Z,69.52
2022-09-21T10:35:30.236Z,64.47
2022-09-21T10:36:30.232Z,68.09
2022-09-21T10:37:30.222Z,68.48
2022-09-21T10:38:30.247Z,71.30
2022-09-21T10:39:30.210Z,67.96
2022-09-21T10:40:30.227Z,70.19
2022-09-21T10:41:30.186Z,66.46
2022-09-21T10:42:30.180Z,71.29
2022-09-21T10:43:31.866Z,69.81
2022-09-21T10:44:31.162Z,66.80
2022-09-21T10:45:30.160Z,70.70
2022-09-21T10:46:30.190Z,70.00
2022-09-21T10:47:30.143Z,71.34
2022-09-21T10:48:30.169Z,72.12
2022-09-21T10:49:30.128Z,70.27
2022-09-21T10:50:30.120Z,68.97
2022-09-21T10:51:30.115Z,65.05
2022-09-21T10:52:30.107Z,70.18
2022-09-21T10:53:30.149Z,67.23
2022-09-21T10:54:30.097Z,69.47
2022-09-21T10:55:30.091Z,64.64
2022-09-21T10:56:30.076Z,69.17
2022-09-21T10:57:30.067Z,66.44
2022-09-21T10:58:30.089Z,69.48
2022-09-21T10:59:30.054Z,66.90
2022-09-21T11:00:30.050Z,68.80
2022-09-21T11:01:30.088Z,63.68
2022-09-21T11:02:30.097Z,69.39
2022-09-21T11:03:30.034Z,67.80
2022-09-21T11:04:30.047Z,69.88
2022-09-21T11:05:30.011Z,67.17
2022-09-21T11:06:30.001Z,66.02
2022-09-21T11:07:30.002Z,67.27
2022-09-21T11:08:30.065Z,71.02
2022-09-21T11:09:29.987Z,66.19
2022-09-21T11:10:34.161Z,70.14
2022-09-21T11:11:30.973Z,69.94
2022-09-21T11:12:29.965Z,71.87
2022-09-21T11:13:29.957Z,70.68
2022-09-21T11:14:29.978Z,70.16
2022-09-21T11:15:29.966Z,68.97
2022-09-21T11:16:29.935Z,71.43
2022-09-21T11:17:29.931Z,68.55
2022-09-21T11:18:29.913Z,71.45
2022-09-21T11:19:29.944Z,71.22
2022-09-21T11:20:29.904Z,69.17
2022-09-21T11:21:29.895Z,72.48
2022-09-21T11:22:29.900Z,70.20
2022-09-21T11:23:29.883Z,69.23
2022-09-21T11:24:29.902Z,70.33
2022-09-21T11:25:29.882Z,70.91
2022-09-21T11:26:30.006Z,69.91
2022-09-21T11:27:29.860Z,69.27
2022-09-21T11:28:29.855Z,69.10
2022-09-21T11:29:29.871Z,69.38
2022-09-21T11:30:29.839Z,61.12
2022-09-21T11:31:29.824Z,67.27
2022-09-21T11:32:29.823Z,70.79
2022-09-21T11:33:29.810Z,63.60
2022-09-21T11:34:29.843Z,69.15
2022-09-21T11:35:29.796Z,65.80
2022-09-21T11:36:29.797Z,70.34
2022-09-21T11:37:29.784Z,68.82
2022-09-21T11:38:33.759Z,67.75
2022-09-21T11:39:31.809Z,67.22
2022-09-21T11:40:29.813Z,69.95
2022-09-21T11:41:29.753Z,67.66
2022-09-21T11:42:29.749Z,67.33
2022-09-21T11:43:29.744Z,70.73
2022-09-21T11:44:29.770Z,69.30
2022-09-21T11:45:29.727Z,69.93
2022-09-21T11:46:29.764Z,70.34
2022-09-21T11:47:29.716Z,65.14
2022-09-21T11:48:29.707Z,59.52
2022-09-21T11:49:29.732Z,70.42
2022-09-21T11:50:30.952Z,67.22
2022-09-21T11:51:30.684Z,68.90
2022-09-21T11:52:29.678Z,70.75
2022-09-21T11:53:29.669Z,68.89
2022-09-21T11:54:29.705Z,64.09
2022-09-21T11:55:29.656Z,66.05
2022-09-21T11:56:29.655Z,70.15
2022-09-21T11:57:29.651Z,68.20
2022-09-21T11:58:29.636Z,68.72
2022-09-21T11:59:29.662Z,63.41
2022-09-21T12:00:29.634Z,69.41
2022-09-21T12:01:29.624Z,70.40
2022-09-21T12:02:29.775Z,69.93
2022-09-21T12:03:29.641Z,69.62
2022-09-21T12:04:29.628Z,67.27
2022-09-21T12:05:29.596Z,65.75
2022-09-21T12:06:29.582Z,62.42
2022-09-21T12:07:29.572Z,70.43
2022-09-21T12:08:29.564Z,73.68
2022-09-21T12:09:29.592Z,68.56
2022-09-21T12:10:29.557Z,68.24
2022-09-21T12:11:29.557Z,67.07
2022-09-21T12:12:29.545Z,65.33
2022-09-21T12:13:29.538Z,64.37
2022-09-21T12:14:29.609Z,65.30
2022-09-21T12:15:29.534Z,68.99
2022-09-21T12:16:29.558Z,69.15
2022-09-21T12:17:29.515Z,66.97
2022-09-21T12:18:29.518Z,67.68
2022-09-21T12:19:29.528Z,74.81
2022-09-21T12:20:29.489Z,68.71
2022-09-21T12:21:29.482Z,69.84
2022-09-21T12:22:29.472Z,67.97
2022-09-21T12:23:29.474Z,64.61
2022-09-21T12:24:32.085Z,70.46
2022-09-21T12:25:30.463Z,66.20
2022-09-21T12:26:29.450Z,71.21
2022-09-21T12:27:29.449Z,68.81
2022-09-21T12:28:29.430Z,66.68
2022-09-21T12:29:29.441Z,69.49
2022-09-21T12:30:29.500Z,63.38
2022-09-21T12:31:29.408Z,69.07
2022-09-21T12:32:29.409Z,69.26
2022-09-21T12:33:29.431Z,66.36
2022-09-21T12:34:29.438Z,69.02
2022-09-21T12:35:29.384Z,69.27
2022-09-21T12:36:29.388Z,64.71
2022-09-21T12:37:29.386Z,64.77
2022-09-21T12:38:29.402Z,71.34
2022-09-21T12:39:29.364Z,71.44
2022-09-21T12:40:29.449Z,68.06
2022-09-21T12:41:29.357Z,66.85
2022-09-21T12:42:29.347Z,60.06
2022-09-21T12:43:29.339Z,66.40
2022-09-21T12:44:29.325Z,67.12
2022-09-21T12:45:29.347Z,69.47
2022-09-21T12:46:29.385Z,69.89
2022-09-21T12:47:29.305Z,68.28
2022-09-21T12:48:29.293Z,68.18
2022-09-21T12:49:29.311Z,69.37
2022-09-21T12:50:29.317Z,67.01
2022-09-21T12:51:29.279Z,69.73
2022-09-21T12:52:29.267Z,69.32
2022-09-21T12:53:29.265Z,69.10
2022-09-21T12:54:29.258Z,70.07